Create Tblcommutelog Verified Points Advance Search
| # | Trip ID | Id Commuter | Trip Date | Trip Num | Current Lat | Current Lng | Delta Distance | Current Time | Activity | Activity Confidence | Current Speed | |
|---|---|---|---|---|---|---|---|---|---|---|---|---|
| 72081 | 260219_770021_16468678_0841 | 770021 | (not set) | (not set) | 38.975606553667 | -77.019402711266 | 0.2983 | 2026-02-19 08:49:12 | unknown | 100 | 0.58562142927392 | |
| 72082 | 260219_790244_16496586_0741 | 790244 | (not set) | (not set) | 39.144735746175 | -76.893298443837 | 15.5163 | 2026-02-19 08:49:15 | in_vehicle | 100 | 7.8231870322852 | |
| 72083 | 260219_780815_6461772_0821 | 780815 | (not set) | (not set) | 38.903467257065 | -77.066603251076 | 8.9436 | 2026-02-19 08:49:25 | on_bicycle | 100 | 3.1963307017622 | |
| 72084 | 260219_789022_6461772_0842 | 789022 | (not set) | (not set) | 38.799503309247 | -77.128611138268 | 1.1688 | 2026-02-19 08:49:37 | on_foot | 100 | 2.2083739393994 | |
| 72085 | 260219_791939_16474991_0819 | 791939 | (not set) | (not set) | 38.896828681765 | -77.017370870011 | 4.4069 | 2026-02-19 08:49:46 | on_foot | 66 | 0.67502928107146 | |
| 72086 | 260219_766126_6452825_0833 | 766126 | (not set) | (not set) | 38.988394277319 | -76.935328771205 | 3.4017 | 2026-02-19 08:50:02 | on_foot | 100 | 0.66161810330183 | |
| 72087 | 260219_789847_16501164_0848 | 789847 | (not set) | (not set) | 38.896809974839 | -77.174132627807 | 0.8938 | 2026-02-19 08:50:13 | unknown | 100 | 6.8218190921527 | |
| 72088 | 260219_790986_16515315_0850 | 790986 | (not set) | (not set) | 38.9785147 | -76.9330872 | 0 | 2026-02-19 08:50:17 | still | 100 | 0.093878244387422 | |
| 72089 | 260219_790244_16496586_0741 | 790244 | (not set) | (not set) | 39.152484825848 | -76.893724157916 | 16.2899 | 2026-02-19 08:50:26 | in_vehicle | 100 | 12.284638836983 | |
| 72090 | 260219_787477_16483549_0850 | 787477 | (not set) | (not set) | 39.3073685 | -76.6193215 | 0 | 2026-02-19 08:50:31 | walking | 100 | 0.42468729603834 | |
| 72091 | 260219_791171_6455647_0847 | 791171 | (not set) | (not set) | 39.000722798079 | -76.942924833859 | 0 | 2026-02-19 08:50:39 | in_vehicle | 100 | -0.44703925898772 | |
| 72092 | 260219_782325_16424909_0841 | 782325 | (not set) | (not set) | 38.910537594038 | -77.041678789413 | 1.2327 | 2026-02-19 08:50:47 | on_bicycle | 100 | 2.7269394798251 | |
| 72093 | 260219_773442_16507254_0843 | 773442 | (not set) | (not set) | 38.900502711635 | -77.041863587187 | 0.9082 | 2026-02-19 08:50:52 | unknown | 100 | 1.7792162507711 | |
| 72094 | 260219_753800_6439769_0810 | 753800 | (not set) | (not set) | 38.929097621213 | -77.023711319901 | 6.8434 | 2026-02-19 08:50:58 | still | 33 | -0.44703925898772 | |
| 72095 | 260219_789002_16504316_0840 | 789002 | (not set) | (not set) | 38.883771342785 | -77.151143059306 | 1.6431 | 2026-02-19 08:51:04 | on_bicycle | 100 | 2.9638702870886 | |
| 72096 | 260219_791904_16453466_0844 | 791904 | (not set) | (not set) | 38.900937269554 | -77.186321849634 | 4.8994 | 2026-02-19 08:51:14 | in_vehicle | 100 | 9.6113440682361 | |
| 72097 | 260219_788738_16413973_0851 | 788738 | (not set) | (not set) | 38.903055642576 | -77.026828746129 | 0 | 2026-02-19 08:51:20 | unknown | 100 | -0.44703925898772 | |
| 72098 | 260219_766965_16450333_0839 | 766965 | (not set) | (not set) | 38.586821582635 | -77.318794318257 | 13.4326 | 2026-02-19 08:51:28 | in_vehicle | 100 | 14.796999472494 | |
| 72099 | 260219_780825_6461772_0839 | 780825 | (not set) | (not set) | 38.827538658675 | -77.118714483117 | 6.9101 | 2026-02-19 08:51:39 | in_vehicle | 100 | 11.368208356058 | |
| 72100 | 260219_780825_6461772_0839 | 780825 | (not set) | (not set) | 38.829029645111 | -77.11571287854 | 7.102 | 2026-02-19 08:51:51 | in_vehicle | 100 | 11.462086600445 |